Terminal Aerodrome Forecast
Issued by NWS

Home | Current Version | Previous Version | Text Only | Print | Product List | Glossary On
Versions: 1 2 3 4 5 6 7 8 9 10 11 12 13 14 15 16 17 18 19
000
FTUS41 KGYX 270618 AAA
TAFAUG
TAF AMD
KAUG 270618Z 2706/2806 32005KT 1 1/2SM BR OVC025
     FM271200 34006KT P6SM OVC035
     FM280500 36006KT 6SM -SHSN OVC035=

USA.gov is the U.S. government's official web portal to all federal, state and local government web resources and services.